sensor_id;sensor_type;location;lat;lon;timestamp;pressure;altitude;pressure_sealevel;temperature;humidity
78741;BME280;68062;48.726;9.370;2023-05-19T00:02:19;99164.06;;;11.65;68.28
78741;BME280;68062;48.726;9.370;2023-05-19T00:04:48;99180.38;;;11.71;67.90
78741;BME280;68062;48.726;9.370;2023-05-19T00:07:16;99174.34;;;11.74;68.45
78741;BME280;68062;48.726;9.370;2023-05-19T00:09:44;99181.25;;;11.73;68.97
78741;BME280;68062;48.726;9.370;2023-05-19T00:12:12;99181.25;;;11.64;68.97
78741;BME280;68062;48.726;9.370;2023-05-19T00:14:41;99181.22;;;11.62;69.01
78741;BME280;68062;48.726;9.370;2023-05-19T00:17:08;99177.78;;;11.70;68.53
78741;BME280;68062;48.726;9.370;2023-05-19T00:19:34;99175.22;;;11.65;69.38
78741;BME280;68062;48.726;9.370;2023-05-19T00:22:03;99177.78;;;11.63;69.94
78741;BME280;68062;48.726;9.370;2023-05-19T00:24:31;99113.38;;;11.18;69.27
78741;BME280;68062;48.726;9.370;2023-05-19T00:26:57;99178.66;;;11.58;69.47
78741;BME280;68062;48.726;9.370;2023-05-19T00:29:24;99175.22;;;11.59;69.33
78741;BME280;68062;48.726;9.370;2023-05-19T00:31:55;99173.50;;;11.45;69.64
78741;BME280;68062;48.726;9.370;2023-05-19T00:34:24;99171.75;;;11.49;70.21
78741;BME280;68062;48.726;9.370;2023-05-19T00:36:50;99176.09;;;11.61;69.31
78741;BME280;68062;48.726;9.370;2023-05-19T00:39:17;99167.50;;;11.59;69.63
78741;BME280;68062;48.726;9.370;2023-05-19T00:41:44;99170.06;;;11.77;69.73
78741;BME280;68062;48.726;9.370;2023-05-19T00:44:10;99166.63;;;11.72;69.65
78741;BME280;68062;48.726;9.370;2023-05-19T00:46:37;99173.50;;;11.72;69.47
78741;BME280;68062;48.726;9.370;2023-05-19T00:49:09;99174.38;;;11.82;69.13
78741;BME280;68062;48.726;9.370;2023-05-19T00:51:36;99176.06;;;11.90;68.99
78741;BME280;68062;48.726;9.370;2023-05-19T00:54:03;99161.47;;;11.92;69.10
78741;BME280;68062;48.726;9.370;2023-05-19T00:56:31;99140.84;;;11.89;68.21
78741;BME280;68062;48.726;9.370;2023-05-19T00:58:59;99165.78;;;12.09;67.74
78741;BME280;68062;48.726;9.370;2023-05-19T01:01:26;99158.00;;;11.95;68.37
78741;BME280;68062;48.726;9.370;2023-05-19T01:03:53;99166.63;;;12.00;69.24
78741;BME280;68062;48.726;9.370;2023-05-19T01:06:22;99146.03;;;11.85;68.74
78741;BME280;68062;48.726;9.370;2023-05-19T01:08:50;99154.56;;;11.93;69.10
78741;BME280;68062;48.726;9.370;2023-05-19T01:11:18;99140.88;;;11.78;69.42
78741;BME280;68062;48.726;9.370;2023-05-19T01:13:45;99157.19;;;11.77;70.49
78741;BME280;68062;48.726;9.370;2023-05-19T01:16:19;99157.19;;;11.79;71.08
78741;BME280;68062;48.726;9.370;2023-05-19T01:18:56;99154.63;;;11.77;70.53
78741;BME280;68062;48.726;9.370;2023-05-19T01:21:58;99155.47;;;11.80;70.92
78741;BME280;68062;48.726;9.370;2023-05-19T01:24:48;99127.13;;;11.45;71.60
78741;BME280;68062;48.726;9.370;2023-05-19T01:27:32;99159.75;;;11.53;72.72
78741;BME280;68062;48.726;9.370;2023-05-19T01:30:20;99166.63;;;11.52;72.68
78741;BME280;68062;48.726;9.370;2023-05-19T01:32:51;99164.91;;;11.40;72.38
78741;BME280;68062;48.726;9.370;2023-05-19T01:35:20;99167.47;;;11.34;73.95
78741;BME280;68062;48.726;9.370;2023-05-19T01:37:50;99163.16;;;11.24;73.65
78741;BME280;68062;48.726;9.370;2023-05-19T01:40:18;99168.34;;;11.50;72.54
78741;BME280;68062;48.726;9.370;2023-05-19T01:42:46;99170.03;;;11.42;72.56
78741;BME280;68062;48.726;9.370;2023-05-19T01:45:16;99169.19;;;11.43;73.09
78741;BME280;68062;48.726;9.370;2023-05-19T01:47:46;99180.34;;;11.43;72.49
78741;BME280;68062;48.726;9.370;2023-05-19T01:50:14;99167.44;;;11.32;72.53
78741;BME280;68062;48.726;9.370;2023-05-19T01:52:41;99174.34;;;11.44;72.86
78741;BME280;68062;48.726;9.370;2023-05-19T01:55:08;99176.06;;;11.42;72.42
78741;BME280;68062;48.726;9.370;2023-05-19T01:57:45;99158.88;;;11.43;72.02
78741;BME280;68062;48.726;9.370;2023-05-19T02:00:21;99170.91;;;11.45;72.37
78741;BME280;68062;48.726;9.370;2023-05-19T02:02:56;99160.63;;;11.42;71.99
78741;BME280;68062;48.726;9.370;2023-05-19T02:06:02;99170.94;;;11.48;71.06
78741;BME280;68062;48.726;9.370;2023-05-19T02:08:41;99143.44;;;11.37;71.18
78741;BME280;68062;48.726;9.370;2023-05-19T02:11:13;99153.75;;;11.52;71.01
78741;BME280;68062;48.726;9.370;2023-05-19T02:13:47;99141.72;;;11.43;70.44
78741;BME280;68062;48.726;9.370;2023-05-19T02:16:16;99152.03;;;11.56;70.68
78741;BME280;68062;48.726;9.370;2023-05-19T02:18:44;99158.88;;;11.49;70.72
78741;BME280;68062;48.726;9.370;2023-05-19T02:21:12;99161.44;;;11.40;71.96
78741;BME280;68062;48.726;9.370;2023-05-19T02:23:38;99160.59;;;11.31;71.16
78741;BME280;68062;48.726;9.370;2023-05-19T02:26:06;99174.31;;;11.29;71.97
78741;BME280;68062;48.726;9.370;2023-05-19T02:28:33;99173.44;;;11.25;72.34
78741;BME280;68062;48.726;9.370;2023-05-19T02:31:01;99165.72;;;11.14;73.03
78741;BME280;68062;48.726;9.370;2023-05-19T02:33:30;99144.16;;;10.80;73.89
78741;BME280;68062;48.726;9.370;2023-05-19T02:35:57;99163.91;;;10.87;74.22
78741;BME280;68062;48.726;9.370;2023-05-19T02:38:24;99161.34;;;10.85;74.64
78741;BME280;68062;48.726;9.370;2023-05-19T02:40:51;99169.00;;;10.74;74.52
78741;BME280;68062;48.726;9.370;2023-05-19T02:43:18;99122.59;;;10.40;76.29
78741;BME280;68062;48.726;9.370;2023-05-19T02:45:45;99158.63;;;10.51;76.59
78741;BME280;68062;48.726;9.370;2023-05-19T02:48:12;99167.25;;;10.55;75.91
78741;BME280;68062;48.726;9.370;2023-05-19T02:50:41;99162.97;;;10.57;77.01
78741;BME280;68062;48.726;9.370;2023-05-19T02:53:08;99162.94;;;10.52;76.60
78741;BME280;68062;48.726;9.370;2023-05-19T02:55:35;99166.34;;;10.47;77.27
78741;BME280;68062;48.726;9.370;2023-05-19T02:58:02;99156.81;;;10.36;78.00
78741;BME280;68062;48.726;9.370;2023-05-19T03:00:29;99156.81;;;10.36;77.84
78741;BME280;68062;48.726;9.370;2023-05-19T03:02:56;99156.94;;;10.53;76.18
78741;BME280;68062;48.726;9.370;2023-05-19T03:05:29;99155.16;;;10.40;76.55
78741;BME280;68062;48.726;9.370;2023-05-19T03:07:58;99150.03;;;10.43;77.23
78741;BME280;68062;48.726;9.370;2023-05-19T03:10:24;99146.47;;;10.25;77.59
78741;BME280;68062;48.726;9.370;2023-05-19T03:12:51;99117.25;;;10.08;77.12
78741;BME280;68062;48.726;9.370;2023-05-19T03:15:18;99153.34;;;10.25;78.58
78741;BME280;68062;48.726;9.370;2023-05-19T03:17:45;99151.59;;;10.21;78.07
78741;BME280;68062;48.726;9.370;2023-05-19T03:20:12;99149.88;;;10.21;78.10
78741;BME280;68062;48.726;9.370;2023-05-19T03:22:40;99153.34;;;10.26;77.43
78741;BME280;68062;48.726;9.370;2023-05-19T03:25:09;99141.25;;;10.13;77.81
78741;BME280;68062;48.726;9.370;2023-05-19T03:27:36;99155.84;;;10.15;78.92
78741;BME280;68062;48.726;9.370;2023-05-19T03:30:03;99164.31;;;9.99;80.57
78741;BME280;68062;48.726;9.370;2023-05-19T03:32:30;99167.63;;;9.82;81.55
78741;BME280;68062;48.726;9.370;2023-05-19T03:34:58;99164.25;;;9.90;81.06
78741;BME280;68062;48.726;9.370;2023-05-19T03:37:26;99159.94;;;9.87;79.19
78741;BME280;68062;48.726;9.370;2023-05-19T03:39:53;99157.28;;;9.76;80.89
78741;BME280;68062;48.726;9.370;2023-05-19T03:42:21;99159.00;;;9.79;81.02
78741;BME280;68062;48.726;9.370;2023-05-19T03:44:48;99151.31;;;9.82;80.27
78741;BME280;68062;48.726;9.370;2023-05-19T03:47:17;99156.59;;;10.00;79.70
78741;BME280;68062;48.726;9.370;2023-05-19T03:50:00;99149.84;;;10.13;79.81
78741;BME280;68062;48.726;9.370;2023-05-19T03:52:59;99148.16;;;10.19;78.83
78741;BME280;68062;48.726;9.370;2023-05-19T03:55:31;99156.69;;;10.14;79.50
78741;BME280;68062;48.726;9.370;2023-05-19T03:58:00;99158.25;;;9.92;78.88
78741;BME280;68062;48.726;9.370;2023-05-19T04:00:26;99157.28;;;9.78;80.73
78741;BME280;68062;48.726;9.370;2023-05-19T04:02:53;99157.38;;;9.89;79.89
78741;BME280;68062;48.726;9.370;2023-05-19T04:05:20;99165.16;;;9.99;79.68
78741;BME280;68062;48.726;9.370;2023-05-19T04:07:47;99165.19;;;10.06;78.54
78741;BME280;68062;48.726;9.370;2023-05-19T04:10:16;99170.34;;;10.09;79.39
78741;BME280;68062;48.726;9.370;2023-05-19T04:12:45;99166.97;;;10.13;78.91
78741;BME280;68062;48.726;9.370;2023-05-19T04:15:16;99158.28;;;9.98;79.26
78741;BME280;68062;48.726;9.370;2023-05-19T04:17:43;99165.34;;;10.29;78.63
78741;BME280;68062;48.726;9.370;2023-05-19T04:20:11;99163.56;;;10.20;78.91
78741;BME280;68062;48.726;9.370;2023-05-19T04:22:37;99166.13;;;10.15;77.75
78741;BME280;68062;48.726;9.370;2023-05-19T04:25:05;99172.03;;;10.04;79.24
78741;BME280;68062;48.726;9.370;2023-05-19T04:27:33;99177.22;;;10.13;79.04
78741;BME280;68062;48.726;9.370;2023-05-19T04:30:04;99168.72;;;10.20;78.96
78741;BME280;68062;48.726;9.370;2023-05-19T04:32:33;99173.81;;;10.09;80.13
78741;BME280;68062;48.726;9.370;2023-05-19T04:35:01;99172.16;;;10.25;78.22
78741;BME280;68062;48.726;9.370;2023-05-19T04:37:30;99170.50;;;10.32;78.52
78741;BME280;68062;48.726;9.370;2023-05-19T04:39:57;99177.38;;;10.38;78.53
78741;BME280;68062;48.726;9.370;2023-05-19T04:42:25;99174.91;;;10.50;76.92
78741;BME280;68062;48.726;9.370;2023-05-19T04:44:55;99174.06;;;10.54;77.04
78741;BME280;68062;48.726;9.370;2023-05-19T04:47:23;99181.81;;;10.57;77.63
78741;BME280;68062;48.726;9.370;2023-05-19T04:49:54;99182.63;;;10.47;77.72
78741;BME280;68062;48.726;9.370;2023-05-19T04:52:20;99174.94;;;10.55;76.81
78741;BME280;68062;48.726;9.370;2023-05-19T04:54:49;99164.66;;;10.61;76.95
78741;BME280;68062;48.726;9.370;2023-05-19T04:57:15;99184.44;;;10.74;76.62
78741;BME280;68062;48.726;9.370;2023-05-19T04:59:43;99184.50;;;10.82;76.55
78741;BME280;68062;48.726;9.370;2023-05-19T05:02:11;99182.81;;;10.91;75.64
78741;BME280;68062;48.726;9.370;2023-05-19T05:04:38;99176.84;;;11.07;75.20
78741;BME280;68062;48.726;9.370;2023-05-19T05:07:12;99187.13;;;10.98;75.55
78741;BME280;68062;48.726;9.370;2023-05-19T05:09:38;99144.16;;;10.77;76.08
78741;BME280;68062;48.726;9.370;2023-05-19T05:12:07;99176.91;;;11.41;73.71
78741;BME280;68062;48.726;9.370;2023-05-19T05:14:36;99163.09;;;11.07;74.26
78741;BME280;68062;48.726;9.370;2023-05-19T05:17:04;99182.94;;;11.59;73.34
78741;BME280;68062;48.726;9.370;2023-05-19T05:19:32;99177.81;;;11.62;72.83
78741;BME280;68062;48.726;9.370;2023-05-19T05:22:00;99175.22;;;11.56;72.87
78741;BME280;68062;48.726;9.370;2023-05-19T05:24:29;99172.63;;;11.73;72.56
78741;BME280;68062;48.726;9.370;2023-05-19T05:26:58;99162.34;;;11.79;71.96
78741;BME280;68062;48.726;9.370;2023-05-19T05:29:28;99168.34;;;11.62;73.11
78741;BME280;68062;48.726;9.370;2023-05-19T05:31:55;99166.63;;;12.02;71.72
78741;BME280;68062;48.726;9.370;2023-05-19T05:34:22;99161.47;;;12.03;72.32
78741;BME280;68062;48.726;9.370;2023-05-19T05:36:49;99158.03;;;11.62;72.54
78741;BME280;68062;48.726;9.370;2023-05-19T05:39:17;99168.34;;;11.92;72.97
78741;BME280;68062;48.726;9.370;2023-05-19T05:41:46;99152.00;;;12.09;71.53
78741;BME280;68062;48.726;9.370;2023-05-19T05:44:13;99166.56;;;12.36;70.88
78741;BME280;68062;48.726;9.370;2023-05-19T05:46:42;99168.25;;;12.45;70.59
78741;BME280;68062;48.726;9.370;2023-05-19T05:49:13;99158.78;;;12.55;70.14
78741;BME280;68062;48.726;9.370;2023-05-19T05:51:43;99176.75;;;12.72;70.64
78741;BME280;68062;48.726;9.370;2023-05-19T05:54:11;99171.56;;;12.86;68.53
78741;BME280;68062;48.726;9.370;2023-05-19T05:56:43;99172.38;;;12.92;69.06
78741;BME280;68062;48.726;9.370;2023-05-19T05:59:13;99173.13;;;13.13;68.28
78741;BME280;68062;48.726;9.370;2023-05-19T06:01:40;99171.41;;;13.12;68.28
78741;BME280;68062;48.726;9.370;2023-05-19T06:04:08;99174.03;;;13.07;68.76
78741;BME280;68062;48.726;9.370;2023-05-19T06:06:35;99172.25;;;13.17;67.30
78741;BME280;68062;48.726;9.370;2023-05-19T06:09:03;99139.56;;;13.15;66.23
78741;BME280;68062;48.726;9.370;2023-05-19T06:11:31;99166.09;;;13.43;65.43
78741;BME280;68062;48.726;9.370;2023-05-19T06:13:58;99178.19;;;13.27;66.66
78741;BME280;68062;48.726;9.370;2023-05-19T06:16:48;99174.59;;;13.56;66.07
78741;BME280;68062;48.726;9.370;2023-05-19T06:19:17;99177.94;;;13.67;65.98
78741;BME280;68062;48.726;9.370;2023-05-19T06:21:44;99172.72;;;13.74;65.75
78741;BME280;68062;48.726;9.370;2023-05-19T06:24:10;99171.00;;;13.76;65.14
78741;BME280;68062;48.726;9.370;2023-05-19T06:26:37;99174.31;;;13.92;65.07
78741;BME280;68062;48.726;9.370;2023-05-19T06:29:03;99167.25;;;14.08;64.54
78741;BME280;68062;48.726;9.370;2023-05-19T06:31:30;99167.94;;;14.27;63.98
78741;BME280;68062;48.726;9.370;2023-05-19T06:34:07;99163.47;;;14.40;63.60
78741;BME280;68062;48.726;9.370;2023-05-19T06:36:34;99169.84;;;14.09;64.03
78741;BME280;68062;48.726;9.370;2023-05-19T06:39:02;99169.19;;;13.84;64.38
78741;BME280;68062;48.726;9.370;2023-05-19T06:41:30;99156.28;;;13.84;64.67
78741;BME280;68062;48.726;9.370;2023-05-19T06:43:56;99156.69;;;14.30;62.92
78741;BME280;68062;48.726;9.370;2023-05-19T06:46:23;99165.16;;;14.46;61.63
78741;BME280;68062;48.726;9.370;2023-05-19T06:48:51;99166.81;;;14.53;62.87
78741;BME280;68062;48.726;9.370;2023-05-19T06:51:22;99166.25;;;14.26;63.12
78741;BME280;68062;48.726;9.370;2023-05-19T06:53:53;99164.69;;;14.88;62.25
78741;BME280;68062;48.726;9.370;2023-05-19T06:56:21;99162.72;;;15.05;60.82
78741;BME280;68062;48.726;9.370;2023-05-19T06:58:48;99166.16;;;15.07;61.73
78741;BME280;68062;48.726;9.370;2023-05-19T07:01:17;99167.44;;;14.75;61.47
78741;BME280;68062;48.726;9.370;2023-05-19T07:03:49;99165.56;;;14.07;62.41
78741;BME280;68062;48.726;9.370;2023-05-19T07:06:16;99166.59;;;13.89;62.77
78741;BME280;68062;48.726;9.370;2023-05-19T07:08:44;99163.59;;;14.32;62.57
78741;BME280;68062;48.726;9.370;2023-05-19T07:11:11;99158.22;;;14.51;61.48
78741;BME280;68062;48.726;9.370;2023-05-19T07:13:39;99170.66;;;14.15;63.66
78741;BME280;68062;48.726;9.370;2023-05-19T07:16:06;99168.59;;;14.48;63.61
78741;BME280;68062;48.726;9.370;2023-05-19T07:18:33;99162.34;;;14.64;63.98
78741;BME280;68062;48.726;9.370;2023-05-19T07:21:00;99173.78;;;14.48;63.81
78741;BME280;68062;48.726;9.370;2023-05-19T07:23:27;99146.72;;;14.75;62.07
78741;BME280;68062;48.726;9.370;2023-05-19T07:25:55;99165.56;;;14.86;60.01
78741;BME280;68062;48.726;9.370;2023-05-19T07:28:22;99165.22;;;15.11;60.45
78741;BME280;68062;48.726;9.370;2023-05-19T07:30:49;99160.53;;;15.38;60.57
78741;BME280;68062;48.726;9.370;2023-05-19T07:33:16;99165.72;;;14.73;62.38
78741;BME280;68062;48.726;9.370;2023-05-19T07:35:42;99156.91;;;14.86;61.94
78741;BME280;68062;48.726;9.370;2023-05-19T07:38:09;99158.25;;;14.46;61.94
78741;BME280;68062;48.726;9.370;2023-05-19T07:40:36;99153.66;;;14.73;61.73
78741;BME280;68062;48.726;9.370;2023-05-19T07:43:05;99148.09;;;14.27;62.59
78741;BME280;68062;48.726;9.370;2023-05-19T07:45:32;99156.22;;;13.92;64.30
78741;BME280;68062;48.726;9.370;2023-05-19T07:47:58;99152.38;;;14.33;62.56
78741;BME280;68062;48.726;9.370;2023-05-19T07:50:25;99156.13;;;14.82;62.52
78741;BME280;68062;48.726;9.370;2023-05-19T07:52:52;99154.19;;;14.97;61.07
78741;BME280;68062;48.726;9.370;2023-05-19T07:55:19;99159.97;;;15.18;60.33
78741;BME280;68062;48.726;9.370;2023-05-19T07:57:47;99155.63;;;15.20;60.08
78741;BME280;68062;48.726;9.370;2023-05-19T08:00:17;99149.13;;;15.49;60.23
78741;BME280;68062;48.726;9.370;2023-05-19T08:02:44;99151.59;;;15.58;59.59
78741;BME280;68062;48.726;9.370;2023-05-19T08:05:11;99152.72;;;15.95;57.81
78741;BME280;68062;48.726;9.370;2023-05-19T08:07:38;99145.66;;;16.03;57.29
78741;BME280;68062;48.726;9.370;2023-05-19T08:10:05;99135.66;;;15.80;57.41
78741;BME280;68062;48.726;9.370;2023-05-19T08:12:32;99146.03;;;15.25;59.78
78741;BME280;68062;48.726;9.370;2023-05-19T08:14:59;99138.41;;;15.15;60.05
78741;BME280;68062;48.726;9.370;2023-05-19T08:17:27;99131.72;;;14.99;59.83
78741;BME280;68062;48.726;9.370;2023-05-19T08:19:53;99139.38;;;15.07;59.23
78741;BME280;68062;48.726;9.370;2023-05-19T08:22:20;99138.19;;;14.64;60.91
78741;BME280;68062;48.726;9.370;2023-05-19T08:24:47;99135.25;;;14.95;58.91
78741;BME280;68062;48.726;9.370;2023-05-19T08:27:14;99135.75;;;14.53;61.54
78741;BME280;68062;48.726;9.370;2023-05-19T08:29:40;99132.88;;;15.39;58.92
78741;BME280;68062;48.726;9.370;2023-05-19T08:32:07;99125.31;;;15.78;58.12
78741;BME280;68062;48.726;9.370;2023-05-19T08:34:35;99120.00;;;15.87;58.00
78741;BME280;68062;48.726;9.370;2023-05-19T08:37:02;99127.69;;;16.39;56.44
78741;BME280;68062;48.726;9.370;2023-05-19T08:39:29;99124.91;;;16.47;55.51
78741;BME280;68062;48.726;9.370;2023-05-19T08:41:58;99124.63;;;15.68;58.37
78741;BME280;68062;48.726;9.370;2023-05-19T08:44:25;99118.84;;;16.02;56.20
78741;BME280;68062;48.726;9.370;2023-05-19T08:46:54;99117.09;;;15.53;58.79
78741;BME280;68062;48.726;9.370;2023-05-19T08:49:25;99091.69;;;15.22;58.64
78741;BME280;68062;48.726;9.370;2023-05-19T08:51:59;99119.25;;;15.79;57.63
78741;BME280;68062;48.726;9.370;2023-05-19T08:54:32;99122.59;;;15.84;57.06
78741;BME280;68062;48.726;9.370;2023-05-19T08:57:03;99124.56;;;15.71;56.61
78741;BME280;68062;48.726;9.370;2023-05-19T08:59:30;99120.31;;;15.67;57.46
78741;BME280;68062;48.726;9.370;2023-05-19T09:01:58;99115.72;;;15.83;57.43
78741;BME280;68062;48.726;9.370;2023-05-19T09:04:25;99119.50;;;16.14;56.67
78741;BME280;68062;48.726;9.370;2023-05-19T09:06:52;99115.03;;;15.72;56.70
78741;BME280;68062;48.726;9.370;2023-05-19T09:09:20;99114.88;;;15.29;58.08
78741;BME280;68062;48.726;9.370;2023-05-19T09:11:47;99125.59;;;15.06;59.42
78741;BME280;68062;48.726;9.370;2023-05-19T09:14:13;99115.13;;;15.67;58.72
78741;BME280;68062;48.726;9.370;2023-05-19T09:16:40;99117.44;;;15.84;58.52
78741;BME280;68062;48.726;9.370;2023-05-19T09:19:12;99110.53;;;15.83;57.61
78741;BME280;68062;48.726;9.370;2023-05-19T09:21:40;99113.94;;;15.34;57.71
78741;BME280;68062;48.726;9.370;2023-05-19T09:24:08;99110.84;;;15.65;58.27
78741;BME280;68062;48.726;9.370;2023-05-19T09:26:37;99110.94;;;15.05;59.08
78741;BME280;68062;48.726;9.370;2023-05-19T09:29:11;99121.63;;;14.79;59.25
78741;BME280;68062;48.726;9.370;2023-05-19T09:31:38;99123.97;;;14.99;60.61
78741;BME280;68062;48.726;9.370;2023-05-19T09:34:42;99120.88;;;15.33;59.62
78741;BME280;68062;48.726;9.370;2023-05-19T09:40:33;99115.53;;;15.94;57.64
78741;BME280;68062;48.726;9.370;2023-05-19T09:43:04;99109.25;;;15.57;59.40
78741;BME280;68062;48.726;9.370;2023-05-19T09:45:33;99108.09;;;15.74;58.38
78741;BME280;68062;48.726;9.370;2023-05-19T09:48:02;99113.44;;;15.66;57.51
78741;BME280;68062;48.726;9.370;2023-05-19T09:53:37;99106.09;;;15.92;57.39
78741;BME280;68062;48.726;9.370;2023-05-19T09:59:53;99101.25;;;15.71;58.47
78741;BME280;68062;48.726;9.370;2023-05-19T10:02:22;99097.75;;;15.19;59.94
78741;BME280;68062;48.726;9.370;2023-05-19T10:04:51;99093.22;;;15.34;59.43
78741;BME280;68062;48.726;9.370;2023-05-19T10:07:19;99098.63;;;15.20;58.88
78741;BME280;68062;48.726;9.370;2023-05-19T10:09:49;99099.34;;;15.28;58.07
78741;BME280;68062;48.726;9.370;2023-05-19T10:12:16;99097.75;;;15.19;57.72
78741;BME280;68062;48.726;9.370;2023-05-19T10:14:43;99096.41;;;14.95;60.11
78741;BME280;68062;48.726;9.370;2023-05-19T10:17:12;99095.47;;;14.99;59.28
78741;BME280;68062;48.726;9.370;2023-05-19T10:19:40;99096.13;;;15.67;58.97
78741;BME280;68062;48.726;9.370;2023-05-19T10:22:06;99089.69;;;15.89;57.36
78741;BME280;68062;48.726;9.370;2023-05-19T10:24:33;99099.25;;;15.87;57.30
78741;BME280;68062;48.726;9.370;2023-05-19T10:27:02;99105.31;;;15.33;58.50
78741;BME280;68062;48.726;9.370;2023-05-19T10:29:33;99105.47;;;15.22;59.33
78741;BME280;68062;48.726;9.370;2023-05-19T10:32:07;99108.75;;;15.35;58.15
78741;BME280;68062;48.726;9.370;2023-05-19T10:34:58;99098.28;;;15.41;57.90
78741;BME280;68062;48.726;9.370;2023-05-19T10:37:37;99089.00;;;15.28;58.94
78741;BME280;68062;48.726;9.370;2023-05-19T10:40:11;99100.81;;;15.44;58.46
78741;BME280;68062;48.726;9.370;2023-05-19T10:42:52;99097.47;;;15.38;59.24
78741;BME280;68062;48.726;9.370;2023-05-19T10:45:26;99096.00;;;15.74;57.52
78741;BME280;68062;48.726;9.370;2023-05-19T10:47:53;99090.09;;;15.66;58.30
78741;BME280;68062;48.726;9.370;2023-05-19T10:50:21;99087.63;;;15.05;57.96
78741;BME280;68062;48.726;9.370;2023-05-19T10:52:52;99091.03;;;15.07;59.63
78741;BME280;68062;48.726;9.370;2023-05-19T10:55:44;99088.75;;;15.43;59.32
78741;BME280;68062;48.726;9.370;2023-05-19T10:58:11;99087.94;;;15.92;56.16
78741;BME280;68062;48.726;9.370;2023-05-19T11:00:38;99063.16;;;15.23;58.30
78741;BME280;68062;48.726;9.370;2023-05-19T11:03:12;99086.38;;;15.81;57.71
78741;BME280;68062;48.726;9.370;2023-05-19T11:05:41;99070.97;;;15.22;57.60
78741;BME280;68062;48.726;9.370;2023-05-19T11:08:10;99083.25;;;15.62;57.18
78741;BME280;68062;48.726;9.370;2023-05-19T11:10:37;99085.47;;;15.84;55.84
78741;BME280;68062;48.726;9.370;2023-05-19T11:13:04;99090.94;;;15.67;56.62
78741;BME280;68062;48.726;9.370;2023-05-19T11:15:34;99090.19;;;16.10;55.92
78741;BME280;68062;48.726;9.370;2023-05-19T11:18:01;99088.06;;;15.82;57.93
78741;BME280;68062;48.726;9.370;2023-05-19T11:20:30;99088.59;;;16.03;56.80
78741;BME280;68062;48.726;9.370;2023-05-19T11:23:07;99080.69;;;16.09;56.05
78741;BME280;68062;48.726;9.370;2023-05-19T11:25:44;99079.84;;;15.60;56.65
78741;BME280;68062;48.726;9.370;2023-05-19T11:28:14;99082.78;;;15.90;56.71
78741;BME280;68062;48.726;9.370;2023-05-19T11:30:41;99083.38;;;15.56;56.88
78741;BME280;68062;48.726;9.370;2023-05-19T11:33:09;99088.19;;;15.76;57.21
78741;BME280;68062;48.726;9.370;2023-05-19T11:35:35;99078.34;;;15.47;57.22
78741;BME280;68062;48.726;9.370;2023-05-19T11:38:04;99082.75;;;15.40;57.23
78741;BME280;68062;48.726;9.370;2023-05-19T11:40:33;99091.47;;;15.87;56.00
78741;BME280;68062;48.726;9.370;2023-05-19T11:43:01;99085.13;;;15.54;57.42
78741;BME280;68062;48.726;9.370;2023-05-19T11:45:30;99087.25;;;15.28;56.38
78741;BME280;68062;48.726;9.370;2023-05-19T11:47:57;99079.22;;;15.45;56.24
78741;BME280;68062;48.726;9.370;2023-05-19T11:50:25;99081.81;;;15.44;56.83
78741;BME280;68062;48.726;9.370;2023-05-19T11:52:53;99089.00;;;15.26;57.41
78741;BME280;68062;48.726;9.370;2023-05-19T11:55:21;99077.41;;;15.51;57.64
78741;BME280;68062;48.726;9.370;2023-05-19T11:57:56;99078.59;;;15.29;58.00
78741;BME280;68062;48.726;9.370;2023-05-19T12:00:24;99043.59;;;15.04;58.40
78741;BME280;68062;48.726;9.370;2023-05-19T12:02:51;99069.69;;;15.48;57.15
78741;BME280;68062;48.726;9.370;2023-05-19T12:05:19;99067.34;;;15.32;58.27
78741;BME280;68062;48.726;9.370;2023-05-19T12:07:47;99074.59;;;15.62;57.64
78741;BME280;68062;48.726;9.370;2023-05-19T12:10:16;99074.38;;;15.74;57.24
78741;BME280;68062;48.726;9.370;2023-05-19T12:12:44;99070.72;;;16.33;55.68
78741;BME280;68062;48.726;9.370;2023-05-19T12:15:13;99073.31;;;15.86;57.09
78741;BME280;68062;48.726;9.370;2023-05-19T12:17:41;99066.13;;;16.02;55.95
78741;BME280;68062;48.726;9.370;2023-05-19T12:20:08;99062.66;;;16.03;56.81
78741;BME280;68062;48.726;9.370;2023-05-19T12:22:36;99070.50;;;16.00;57.68
78741;BME280;68062;48.726;9.370;2023-05-19T12:25:04;99063.50;;;16.03;57.35
78741;BME280;68062;48.726;9.370;2023-05-19T12:27:34;99073.25;;;15.91;57.47
78741;BME280;68062;48.726;9.370;2023-05-19T12:30:03;99040.75;;;15.71;56.39
78741;BME280;68062;48.726;9.370;2023-05-19T12:32:32;99077.19;;;15.62;56.98
78741;BME280;68062;48.726;9.370;2023-05-19T12:35:01;99081.19;;;15.81;56.28
78741;BME280;68062;48.726;9.370;2023-05-19T12:37:29;99058.00;;;15.72;56.80
78741;BME280;68062;48.726;9.370;2023-05-19T12:39:57;99066.53;;;15.79;57.32
78741;BME280;68062;48.726;9.370;2023-05-19T12:42:26;99075.91;;;15.86;56.59
78741;BME280;68062;48.726;9.370;2023-05-19T12:44:59;99073.41;;;15.81;56.63
78741;BME280;68062;48.726;9.370;2023-05-19T12:47:29;99074.31;;;16.26;55.69
78741;BME280;68062;48.726;9.370;2023-05-19T12:50:02;99078.75;;;16.21;55.88
78741;BME280;68062;48.726;9.370;2023-05-19T12:52:31;99063.50;;;15.55;58.40
78741;BME280;68062;48.726;9.370;2023-05-19T12:55:01;99080.50;;;15.70;57.32
78741;BME280;68062;48.726;9.370;2023-05-19T12:57:29;99042.09;;;15.43;58.39
78741;BME280;68062;48.726;9.370;2023-05-19T13:00:00;99066.72;;;15.68;57.73
78741;BME280;68062;48.726;9.370;2023-05-19T13:02:28;99068.31;;;15.77;58.17
78741;BME280;68062;48.726;9.370;2023-05-19T13:04:54;99063.44;;;16.07;57.28
78741;BME280;68062;48.726;9.370;2023-05-19T13:07:24;99075.94;;;15.84;56.71
78741;BME280;68062;48.726;9.370;2023-05-19T13:09:51;99072.19;;;16.01;57.34
78741;BME280;68062;48.726;9.370;2023-05-19T13:12:18;99066.59;;;16.21;57.09
78741;BME280;68062;48.726;9.370;2023-05-19T13:14:45;99065.66;;;16.27;56.51
78741;BME280;68062;48.726;9.370;2023-05-19T13:17:12;99067.19;;;16.36;55.22
78741;BME280;68062;48.726;9.370;2023-05-19T13:19:38;99069.63;;;16.43;55.63
78741;BME280;68062;48.726;9.370;2023-05-19T13:22:05;99058.56;;;16.33;55.96